Time;durP1;ratioP1;P1;durP2;ratioP2;P2;SDS_P1;SDS_P2;PMS_P1;PMS_P2;Temp;Humidity;BMP_temperature;BMP_pressure;BME280_temperature;BME280_humidity;BME280_pressure;Samples;Min_cycle;Max_cycle;Signal;HPM_P1;HPM_P2
2022/01/12 00:02:00;;;;;;;48.85;23.50;;;2.40;95.70;;;;;;4936537;29;20034;-66
2022/01/12 00:04:25;;;;;;;48.38;24.00;;;2.40;95.70;;;;;;4935590;29;20036;-67
2022/01/12 00:06:51;;;;;;;51.03;25.52;;;2.40;95.70;;;;;;4936353;29;20124;-67
2022/01/12 00:09:16;;;;;;;55.22;26.95;;;2.40;95.70;;;;;;4936841;29;20023;-67
2022/01/12 00:11:42;;;;;;;47.13;24.27;;;2.40;95.70;;;;;;4935933;29;20525;-67
2022/01/12 00:14:08;;;;;;;50.22;24.65;;;2.30;95.70;;;;;;4936608;29;20027;-67
2022/01/12 00:16:34;;;;;;;51.00;22.55;;;2.30;95.70;;;;;;4935464;29;20031;-67
2022/01/12 00:19:00;;;;;;;44.85;22.60;;;2.20;95.70;;;;;;4935470;29;20087;-67
2022/01/12 00:21:26;;;;;;;46.50;21.75;;;2.30;95.80;;;;;;4935526;29;20035;-68
2022/01/12 00:23:52;;;;;;;46.10;23.02;;;2.30;95.80;;;;;;4936179;29;20035;-66
2022/01/12 00:26:37;;;;;;;46.20;22.50;;;2.30;95.80;;;;;;4933042;29;20049;-67
2022/01/12 00:34:31;;;;;;;50.00;23.10;;;2.20;95.80;;;;;;4935087;29;20047;-67
2022/01/12 00:36:57;;;;;;;46.78;22.15;;;2.20;95.90;;;;;;4936361;29;20035;-66
2022/01/12 00:39:23;;;;;;;43.97;22.98;;;2.20;95.90;;;;;;4935478;29;20602;-66
2022/01/12 00:41:49;;;;;;;44.08;20.95;;;2.20;95.90;;;;;;4935424;29;20031;-67
2022/01/12 00:44:23;;;;;;;47.88;22.80;;;2.20;95.90;;;;;;4936067;29;20032;-66
2022/01/12 00:46:51;;;;;;;44.95;23.25;;;2.30;96.00;;;;;;4934728;29;20039;-67
2022/01/12 00:49:16;;;;;;;46.70;24.23;;;2.30;95.90;;;;;;4936093;29;20075;-67
2022/01/12 00:51:42;;;;;;;43.55;21.38;;;2.20;95.90;;;;;;4935469;29;20032;-67
2022/01/12 00:54:08;;;;;;;51.70;23.23;;;2.20;95.90;;;;;;4935994;29;20031;-67
2022/01/12 00:56:34;;;;;;;47.40;22.48;;;2.20;96.00;;;;;;4934933;29;20418;-67
2022/01/12 00:59:00;;;;;;;52.95;24.02;;;2.20;96.00;;;;;;4936603;29;20074;-67
2022/01/12 01:01:26;;;;;;;54.60;22.75;;;2.20;96.00;;;;;;4935390;29;20055;-66
2022/01/12 01:03:52;;;;;;;44.55;22.52;;;2.10;96.00;;;;;;4935836;29;20023;-67
2022/01/12 01:06:18;;;;;;;43.38;23.77;;;2.10;96.10;;;;;;4934840;29;20058;-67
2022/01/12 01:08:48;;;;;;;48.22;22.50;;;2.10;96.20;;;;;;4935589;29;20056;-67
2022/01/12 01:11:14;;;;;;;45.33;21.42;;;2.20;96.20;;;;;;4935097;29;20497;-67
2022/01/12 01:14:00;;;;;;;55.83;23.55;;;2.20;96.30;;;;;;4935528;29;20119;-68
2022/01/12 01:16:54;;;;;;;48.53;21.90;;;2.20;96.30;;;;;;4934650;29;20510;-67
2022/01/12 01:25:30;;;;;;;45.08;20.38;;;2.30;96.50;;;;;;4935445;29;20399;-67
2022/01/12 01:27:48;;;;;;;44.00;21.47;;;2.40;96.20;;;;;;4934975;29;20465;-68
2022/01/12 01:30:15;;;;;;;48.25;23.13;;;2.40;96.20;;;;;;4934816;29;20036;-68
2022/01/12 01:32:42;;;;;;;48.78;22.40;;;2.40;96.20;;;;;;4920945;29;20026;-68
2022/01/12 01:35:08;;;;;;;48.13;22.98;;;2.40;96.20;;;;;;4934171;29;20040;-68
2022/01/12 01:37:34;;;;;;;47.45;21.48;;;2.40;96.30;;;;;;4934766;29;20034;-67
2022/01/12 01:39:59;;;;;;;45.05;20.33;;;2.30;96.30;;;;;;4934433;29;20497;-67
2022/01/12 01:42:39;;;;;;;49.88;23.42;;;2.30;96.40;;;;;;4934745;29;20023;-67
2022/01/12 01:53:19;;;;;;;49.07;20.53;;;2.40;96.50;;;;;;4915873;29;20482;-67
2022/01/12 01:55:44;;;;;;;44.20;20.58;;;2.40;96.50;;;;;;4926213;29;20035;-67
2022/01/12 01:58:10;;;;;;;42.90;21.13;;;2.40;96.50;;;;;;4934981;29;20034;-68
2022/01/12 02:00:37;;;;;;;42.85;20.55;;;2.50;96.50;;;;;;4933926;29;20494;-68
2022/01/12 02:03:02;;;;;;;47.80;21.98;;;2.50;96.50;;;;;;4934572;29;20058;-68
2022/01/12 02:05:28;;;;;;;45.35;21.38;;;2.50;96.50;;;;;;4934110;29;20479;-67
2022/01/12 02:07:53;;;;;;;40.25;20.17;;;2.50;96.60;;;;;;4934488;29;20459;-68
2022/01/12 02:10:20;;;;;;;38.35;18.42;;;2.60;96.60;;;;;;4933944;29;20131;-68
2022/01/12 02:12:46;;;;;;;42.35;19.00;;;2.60;96.60;;;;;;4934465;29;20031;-68
2022/01/12 02:15:19;;;;;;;41.40;18.63;;;2.70;96.70;;;;;;4933107;29;20615;-68
2022/01/12 02:18:12;;;;;;;44.33;19.25;;;2.70;96.60;;;;;;4933486;29;20031;-68
2022/01/12 02:35:22;;;;;;;43.30;18.58;;;2.60;96.70;;;;;;4933676;29;20063;-68
2022/01/12 02:40:36;;;;;;;52.85;20.02;;;2.70;96.80;;;;;;4933167;29;20032;-68
2022/01/12 02:51:11;;;;;;;40.70;17.53;;;2.80;96.90;;;;;;4934077;29;20035;-68
2022/01/12 02:53:39;;;;;;;44.65;18.83;;;2.80;96.80;;;;;;4933257;29;20040;-68
2022/01/12 02:56:09;;;;;;;44.38;19.90;;;2.80;96.80;;;;;;4934069;29;20028;-67
2022/01/12 02:58:35;;;;;;;43.30;19.23;;;2.90;96.90;;;;;;4933082;29;20036;-67
2022/01/12 03:03:36;;;;;;;47.00;20.85;;;2.90;96.90;;;;;;4933353;29;20047;-66
2022/01/12 03:06:05;;;;;;;44.88;17.35;;;2.90;96.90;;;;;;4934353;29;20048;-67
2022/01/12 03:08:37;;;;;;;44.95;19.77;;;2.90;96.90;;;;;;4932962;29;20118;-67
2022/01/12 03:11:08;;;;;;;41.60;17.20;;;3.00;96.90;;;;;;4934106;29;20098;-67
2022/01/12 03:13:34;;;;;;;39.70;18.70;;;3.00;96.90;;;;;;4933047;29;20036;-67
2022/01/12 03:16:01;;;;;;;41.00;17.98;;;3.00;96.90;;;;;;4933522;29;20127;-67
2022/01/12 03:18:26;;;;;;;40.38;17.67;;;3.00;97.00;;;;;;4933123;29;20072;-67
2022/01/12 03:20:52;;;;;;;49.65;18.80;;;3.00;96.80;;;;;;4936008;29;20075;-67
2022/01/12 03:23:18;;;;;;;46.35;19.05;;;3.00;96.90;;;;;;4936967;29;20036;-67
2022/01/12 03:25:43;;;;;;;40.88;20.30;;;3.00;96.90;;;;;;4937865;29;20095;-67
2022/01/12 03:28:09;;;;;;;40.15;18.00;;;3.00;96.80;;;;;;4936050;29;20042;-67
2022/01/12 03:30:47;;;;;;;43.38;20.25;;;3.00;96.90;;;;;;4952038;29;20032;-67
2022/01/12 03:33:31;;;;;;;41.95;18.73;;;3.00;96.90;;;;;;4937117;29;20035;-67
2022/01/12 03:38:41;;;;;;;42.33;18.73;;;3.00;96.90;;;;;;4936767;29;20487;-67
2022/01/12 03:41:06;;;;;;;48.67;21.27;;;3.00;96.90;;;;;;4937332;29;20063;-67
2022/01/12 03:43:32;;;;;;;47.35;19.27;;;3.00;96.90;;;;;;4934265;29;20122;-67
2022/01/12 03:45:58;;;;;;;39.13;17.98;;;3.00;96.90;;;;;;4937188;29;20398;-67
2022/01/12 03:48:23;;;;;;;41.58;19.45;;;3.00;96.90;;;;;;4936334;29;20034;-67
2022/01/12 03:50:49;;;;;;;46.40;18.58;;;3.00;96.90;;;;;;4937046;29;20364;-67
2022/01/12 03:53:15;;;;;;;45.17;19.55;;;3.00;97.00;;;;;;4936333;29;20498;-67
2022/01/12 03:55:43;;;;;;;51.65;19.70;;;3.00;97.00;;;;;;4936500;29;20098;-67
2022/01/12 03:58:12;;;;;;;48.33;20.15;;;3.00;96.90;;;;;;4936493;29;20137;-67
2022/01/12 04:00:38;;;;;;;45.28;21.58;;;3.00;97.00;;;;;;4937059;29;20103;-68
2022/01/12 04:03:06;;;;;;;45.75;18.27;;;3.00;97.00;;;;;;4936269;29;20035;-68
2022/01/12 04:08:20;;;;;;;47.33;19.55;;;3.00;97.00;;;;;;4935762;29;20055;-67
2022/01/12 04:10:56;;;;;;;51.05;22.65;;;3.00;97.10;;;;;;4936472;29;20059;-68
2022/01/12 04:13:23;;;;;;;48.22;20.85;;;3.00;97.10;;;;;;4935801;29;20505;-67
2022/01/12 04:15:54;;;;;;;40.40;18.20;;;3.10;97.10;;;;;;4936675;29;20114;-67
2022/01/12 04:18:19;;;;;;;41.15;18.88;;;3.10;97.10;;;;;;4934953;29;20035;-67
2022/01/12 04:20:46;;;;;;;47.85;21.08;;;3.10;97.10;;;;;;4936334;29;20055;-67
2022/01/12 04:23:17;;;;;;;47.58;19.75;;;3.10;97.30;;;;;;4936005;29;20031;-66
2022/01/12 04:25:45;;;;;;;50.33;19.70;;;3.10;97.10;;;;;;4936610;29;20099;-67
2022/01/12 04:28:11;;;;;;;50.58;21.45;;;3.20;97.10;;;;;;4934198;29;20027;-67
2022/01/12 04:30:36;;;;;;;50.53;20.25;;;3.20;97.00;;;;;;4936477;29;20028;-67
2022/01/12 04:33:02;;;;;;;51.08;21.08;;;3.20;97.00;;;;;;4935253;29;20591;-68
2022/01/12 04:35:33;;;;;;;49.50;21.30;;;3.20;97.00;;;;;;4936355;29;20082;-67
2022/01/12 04:37:58;;;;;;;50.30;20.75;;;3.20;97.00;;;;;;4935734;29;20042;-67
2022/01/12 04:40:24;;;;;;;52.30;21.30;;;3.20;97.00;;;;;;4935806;29;20036;-67
2022/01/12 04:42:50;;;;;;;51.75;20.98;;;3.20;97.00;;;;;;4935692;29;20479;-67
2022/01/12 04:45:41;;;;;;;51.25;21.63;;;3.10;97.10;;;;;;4936042;29;20447;-67
2022/01/12 04:48:09;;;;;;;50.80;20.63;;;3.20;97.10;;;;;;4934706;29;20387;-67
2022/01/12 04:50:37;;;;;;;44.00;19.13;;;3.20;97.10;;;;;;4932279;29;20028;-67
2022/01/12 04:53:04;;;;;;;46.42;20.02;;;3.20;97.10;;;;;;4918680;29;20490;-67
2022/01/12 04:55:30;;;;;;;45.53;20.10;;;3.30;97.20;;;;;;4934544;29;20697;-67
2022/01/12 04:57:55;;;;;;;45.55;18.42;;;3.20;97.10;;;;;;4933865;29;20115;-67
2022/01/12 05:00:22;;;;;;;43.22;17.55;;;3.30;97.10;;;;;;4932205;29;20027;-67
2022/01/12 05:13:32;;;;;;;43.67;18.10;;;3.30;97.00;;;;;;4935102;29;20111;-67
2022/01/12 05:15:58;;;;;;;44.30;18.05;;;3.30;97.00;;;;;;4935710;29;20138;-67
2022/01/12 05:18:24;;;;;;;47.97;19.88;;;3.40;97.00;;;;;;4933512;29;20110;-67
2022/01/12 05:20:50;;;;;;;43.88;20.15;;;3.40;97.00;;;;;;4935232;29;20048;-67
2022/01/12 05:23:15;;;;;;;46.47;19.55;;;3.40;97.00;;;;;;4934277;29;20136;-67
2022/01/12 05:25:41;;;;;;;48.22;18.65;;;3.40;97.00;;;;;;4935340;29;20028;-67
2022/01/12 05:28:07;;;;;;;43.63;19.15;;;3.40;97.00;;;;;;4934405;29;20039;-68
2022/01/12 05:30:33;;;;;;;45.45;19.15;;;3.40;97.00;;;;;;4935299;29;20476;-68
2022/01/12 05:32:59;;;;;;;50.63;20.85;;;3.40;97.00;;;;;;4934697;29;20091;-68
2022/01/12 05:35:31;;;;;;;46.75;20.50;;;3.40;97.00;;;;;;4935079;29;20103;-67
2022/01/12 05:37:57;;;;;;;56.15;20.98;;;3.40;97.00;;;;;;4934655;29;20149;-68
2022/01/12 05:40:22;;;;;;;51.15;19.75;;;3.30;97.00;;;;;;4935425;29;20034;-68
2022/01/12 05:42:51;;;;;;;54.63;19.75;;;3.30;97.10;;;;;;4934037;29;20027;-68
2022/01/12 05:45:18;;;;;;;47.50;20.00;;;3.30;97.10;;;;;;4935026;29;20036;-68
2022/01/12 05:50:14;;;;;;;43.35;18.23;;;3.30;97.10;;;;;;4935167;29;20063;-68
2022/01/12 05:52:40;;;;;;;46.88;18.05;;;3.30;97.30;;;;;;4935194;29;20047;-68
2022/01/12 05:55:07;;;;;;;42.78;20.50;;;3.30;97.10;;;;;;4934388;29;20043;-68
2022/01/12 05:57:34;;;;;;;45.30;20.83;;;3.30;97.10;;;;;;4933279;29;20028;-68
2022/01/12 06:00:00;;;;;;;44.45;21.35;;;3.30;97.10;;;;;;4934140;29;20386;-68
2022/01/12 06:02:26;;;;;;;46.20;18.13;;;3.20;97.10;;;;;;4934811;29;20031;-68
2022/01/12 06:04:51;;;;;;;44.47;19.25;;;3.20;97.10;;;;;;4933717;29;20047;-68
2022/01/12 06:07:17;;;;;;;43.42;18.80;;;3.10;97.10;;;;;;4934443;29;20086;-68
2022/01/12 06:09:43;;;;;;;46.28;18.70;;;3.10;97.10;;;;;;4933922;29;20090;-68
2022/01/12 06:12:09;;;;;;;40.92;17.00;;;3.10;97.20;;;;;;4934672;29;20039;-68
2022/01/12 06:14:35;;;;;;;46.35;19.70;;;3.10;97.20;;;;;;4934226;29;20031;-68
2022/01/12 06:17:00;;;;;;;44.10;18.63;;;3.20;97.20;;;;;;4934480;29;20031;-68
2022/01/12 06:19:26;;;;;;;44.53;18.52;;;3.20;97.20;;;;;;4933407;29;20052;-68
2022/01/12 06:21:51;;;;;;;35.85;16.48;;;3.10;97.20;;;;;;4934601;29;20022;-68
2022/01/12 06:24:17;;;;;;;46.95;17.15;;;3.20;97.20;;;;;;4934034;29;20046;-68
2022/01/12 06:26:43;;;;;;;39.25;17.58;;;3.20;97.20;;;;;;4934189;29;20027;-68
2022/01/12 06:31:40;;;;;;;38.42;17.70;;;3.20;97.20;;;;;;4934319;29;20020;-68
2022/01/12 06:34:06;;;;;;;44.35;19.70;;;3.20;97.20;;;;;;4932984;29;20054;-68
2022/01/12 06:36:32;;;;;;;43.08;16.38;;;3.20;97.20;;;;;;4933648;29;20580;-68
2022/01/12 06:38:58;;;;;;;55.47;16.90;;;3.20;97.20;;;;;;4933974;29;20659;-68
2022/01/12 06:41:24;;;;;;;39.05;17.13;;;3.20;97.30;;;;;;4934135;29;20034;-68
2022/01/12 06:43:50;;;;;;;36.25;16.48;;;3.20;97.40;;;;;;4933551;29;20063;-68
2022/01/12 06:46:22;;;;;;;38.78;16.05;;;3.20;97.40;;;;;;4933998;29;20044;-68
2022/01/12 06:48:48;;;;;;;35.47;16.02;;;3.30;97.50;;;;;;4933678;29;20504;-68
2022/01/12 06:51:13;;;;;;;35.90;16.88;;;3.30;97.50;;;;;;4934444;29;20038;-68
2022/01/12 06:53:39;;;;;;;42.35;16.55;;;3.30;97.40;;;;;;4933243;29;20058;-67
2022/01/12 06:56:05;;;;;;;40.15;17.08;;;3.30;97.30;;;;;;4932703;29;20118;-68
2022/01/12 06:58:30;;;;;;;37.97;15.85;;;3.40;97.30;;;;;;4933183;29;20495;-68
2022/01/12 07:00:56;;;;;;;39.42;15.75;;;3.40;97.30;;;;;;4932957;29;20360;-68
2022/01/12 07:03:21;;;;;;;38.30;16.02;;;3.40;97.30;;;;;;4924646;29;20395;-69
2022/01/12 07:05:47;;;;;;;36.45;16.52;;;3.40;97.30;;;;;;4932670;29;20032;-68
2022/01/12 07:08:13;;;;;;;39.75;16.60;;;3.40;97.30;;;;;;4933321;29;20028;-65
2022/01/12 07:10:39;;;;;;;38.55;16.58;;;3.50;97.30;;;;;;4933890;29;20039;-65
2022/01/12 07:13:04;;;;;;;39.10;17.23;;;3.50;97.30;;;;;;4933534;29;20083;-65
2022/01/12 07:15:30;;;;;;;39.65;17.40;;;3.50;97.30;;;;;;4933306;29;20040;-65
2022/01/12 07:17:55;;;;;;;39.30;17.02;;;3.50;97.30;;;;;;4924025;29;20028;-65
2022/01/12 07:20:21;;;;;;;38.83;16.55;;;3.50;97.30;;;;;;4937201;29;20062;-65
2022/01/12 07:22:46;;;;;;;37.35;15.32;;;3.60;97.20;;;;;;4951880;29;20027;-65
2022/01/12 07:25:12;;;;;;;39.80;17.25;;;3.60;97.20;;;;;;4933474;29;20035;-65
2022/01/12 07:27:40;;;;;;;36.35;16.38;;;3.60;97.20;;;;;;4933213;29;20028;-65
2022/01/12 07:30:06;;;;;;;38.83;16.92;;;3.60;97.20;;;;;;4932027;29;20475;-65
2022/01/12 07:32:31;;;;;;;36.53;16.10;;;3.60;97.20;;;;;;4933003;29;20370;-65
2022/01/12 07:34:57;;;;;;;38.03;17.35;;;3.60;97.20;;;;;;4929631;29;20024;-65
2022/01/12 07:37:22;;;;;;;41.75;17.13;;;3.60;97.20;;;;;;4934003;29;20032;-65
2022/01/12 07:39:48;;;;;;;42.55;16.23;;;3.60;97.20;;;;;;4932909;29;20039;-65
2022/01/12 07:42:14;;;;;;;39.30;16.83;;;3.60;97.20;;;;;;4933564;29;20458;-65
2022/01/12 07:44:40;;;;;;;39.55;19.30;;;3.70;97.20;;;;;;4932499;29;20145;-65
2022/01/12 07:47:06;;;;;;;33.25;15.25;;;3.70;97.20;;;;;;4933387;29;20078;-65
2022/01/12 07:49:33;;;;;;;39.40;16.27;;;3.80;97.20;;;;;;4933026;29;20094;-65
2022/01/12 07:52:00;;;;;;;40.38;16.10;;;3.80;97.20;;;;;;4933603;29;20060;-65
2022/01/12 07:54:26;;;;;;;40.05;16.98;;;3.80;97.20;;;;;;4933921;29;20500;-65
2022/01/12 07:56:51;;;;;;;38.25;18.25;;;3.90;97.20;;;;;;4933386;29;20036;-65
2022/01/12 07:59:17;;;;;;;39.33;17.65;;;3.90;97.20;;;;;;4932703;29;20111;-65
2022/01/12 08:01:42;;;;;;;39.78;17.05;;;3.90;97.20;;;;;;4932910;29;20035;-65
2022/01/12 08:04:08;;;;;;;38.78;16.45;;;4.00;97.20;;;;;;4931612;29;20047;-65
2022/01/12 08:06:33;;;;;;;40.90;16.77;;;4.00;97.10;;;;;;4933477;29;20099;-64
2022/01/12 08:08:59;;;;;;;44.90;18.83;;;4.00;97.10;;;;;;4935455;29;20036;-64
2022/01/12 08:11:25;;;;;;;41.83;18.55;;;4.10;97.10;;;;;;4937565;29;20094;-64
2022/01/12 08:13:50;;;;;;;42.67;19.52;;;4.10;97.10;;;;;;4935720;29;20032;-64
2022/01/12 08:16:16;;;;;;;40.85;18.48;;;4.10;97.10;;;;;;4935803;29;20035;-65
2022/01/12 08:18:41;;;;;;;42.70;19.30;;;4.10;97.10;;;;;;4935504;29;20558;-65
2022/01/12 08:21:07;;;;;;;37.60;18.45;;;4.20;97.10;;;;;;4935431;29;20035;-66
2022/01/12 08:23:34;;;;;;;40.00;19.10;;;4.20;97.10;;;;;;4936112;29;20051;-64
2022/01/12 08:26:00;;;;;;;39.88;17.30;;;4.30;97.10;;;;;;4936504;29;20036;-65
2022/01/12 08:28:25;;;;;;;42.10;18.38;;;4.30;97.00;;;;;;4935384;29;20087;-66
2022/01/12 08:30:51;;;;;;;40.83;18.27;;;4.30;97.00;;;;;;4936376;29;20417;-67
2022/01/12 08:33:17;;;;;;;38.85;18.05;;;4.40;97.00;;;;;;4936259;29;20116;-67
2022/01/12 08:35:42;;;;;;;41.30;19.40;;;4.40;96.90;;;;;;4936717;29;20372;-67
2022/01/12 08:38:08;;;;;;;35.65;16.83;;;4.40;96.90;;;;;;4935746;29;20024;-67
2022/01/12 08:40:37;;;;;;;38.70;17.42;;;4.50;96.90;;;;;;4935710;29;20028;-67
2022/01/12 08:43:03;;;;;;;39.95;17.73;;;4.50;96.90;;;;;;4935263;29;20036;-67
2022/01/12 08:45:29;;;;;;;42.92;18.70;;;4.50;96.90;;;;;;4936538;29;20054;-67
2022/01/12 08:47:54;;;;;;;40.30;18.05;;;4.60;96.90;;;;;;4935428;29;20020;-67
2022/01/12 08:50:20;;;;;;;42.15;18.48;;;4.70;96.90;;;;;;4936243;29;20138;-66
2022/01/12 08:52:47;;;;;;;43.45;19.40;;;4.60;96.80;;;;;;4935702;29;20578;-66
2022/01/12 08:55:14;;;;;;;43.00;18.60;;;4.70;96.80;;;;;;4934627;29;20055;-66
2022/01/12 08:57:41;;;;;;;50.05;18.90;;;4.70;96.80;;;;;;4928360;29;20035;-66
2022/01/12 09:00:07;;;;;;;46.60;19.85;;;4.70;96.80;;;;;;4934995;29;20118;-66
2022/01/12 09:02:33;;;;;;;45.92;18.50;;;4.80;96.80;;;;;;4941739;29;20067;-66
2022/01/12 09:04:58;;;;;;;47.58;18.70;;;4.80;96.80;;;;;;4934341;29;20130;-66
2022/01/12 09:07:24;;;;;;;55.65;21.48;;;4.80;96.70;;;;;;4934209;29;20024;-66
2022/01/12 09:09:49;;;;;;;376.98;64.22;;;4.90;96.70;;;;;;4932948;29;20047;-67
2022/01/12 09:12:15;;;;;;;612.85;100.93;;;4.90;96.70;;;;;;4950203;29;20391;-67
2022/01/12 09:14:41;;;;;;;269.65;45.28;;;5.00;96.70;;;;;;4934924;29;20514;-67
2022/01/12 09:17:15;;;;;;;172.18;32.80;;;5.00;96.70;;;;;;4934339;29;20482;-66
2022/01/12 09:19:41;;;;;;;;;;;5.00;96.60;;;;;;4935619;28;20062;-67
2022/01/12 09:22:07;;;;;;;375.05;55.17;;;5.10;96.60;;;;;;4927559;29;19915;-67
2022/01/12 09:24:32;;;;;;;707.30;114.50;;;5.00;96.60;;;;;;4933321;29;20040;-67
2022/01/12 09:26:58;;;;;;;533.30;85.97;;;5.10;96.70;;;;;;4934193;29;20023;-67
2022/01/12 09:29:23;;;;;;;379.40;60.67;;;5.10;96.60;;;;;;4934789;29;20384;-67
2022/01/12 09:31:49;;;;;;;381.15;58.60;;;5.10;96.60;;;;;;4935438;29;20020;-67
2022/01/12 09:34:17;;;;;;;207.07;36.90;;;5.20;96.70;;;;;;4935001;29;20040;-67
2022/01/12 09:36:46;;;;;;;763.42;142.85;;;5.20;96.70;;;;;;4933532;29;20115;-67
2022/01/12 09:39:14;;;;;;;634.83;107.93;;;5.30;96.70;;;;;;4934950;29;20039;-67
2022/01/12 09:41:40;;;;;;;603.22;109.97;;;5.30;96.70;;;;;;4934973;29;20028;-67
2022/01/12 09:44:05;;;;;;;477.83;77.78;;;5.30;96.70;;;;;;4934221;29;20499;-67
2022/01/12 09:46:34;;;;;;;145.88;31.80;;;5.40;96.80;;;;;;4935366;29;20030;-67
2022/01/12 09:49:01;;;;;;;299.10;52.78;;;5.40;96.80;;;;;;4934501;29;20194;-67
2022/01/12 09:51:27;;;;;;;374.40;65.28;;;5.40;96.90;;;;;;4935267;29;20099;-68
2022/01/12 09:53:53;;;;;;;229.98;38.67;;;5.50;96.90;;;;;;4934066;29;20032;-66
2022/01/12 09:56:24;;;;;;;281.25;47.78;;;5.50;96.90;;;;;;4935036;29;20498;-68
2022/01/12 09:58:53;;;;;;;348.17;62.92;;;5.60;96.80;;;;;;4933959;29;20035;-66
2022/01/12 10:01:24;;;;;;;479.65;79.82;;;5.60;96.70;;;;;;4933879;29;20031;-66
2022/01/12 10:03:49;;;;;;;468.08;73.95;;;5.60;96.70;;;;;;4934030;29;20538;-67
2022/01/12 10:06:19;;;;;;;595.35;99.43;;;5.70;97.00;;;;;;4933392;29;20118;-67
2022/01/12 10:08:45;;;;;;;807.47;136.88;;;5.70;96.80;;;;;;4933975;29;20027;-67
2022/01/12 10:11:13;;;;;;;1060.70;180.90;;;5.70;96.80;;;;;;4935256;29;20498;-67
2022/01/12 10:13:40;;;;;;;575.63;100.13;;;5.70;96.80;;;;;;4933757;29;20035;-67
2022/01/12 10:16:20;;;;;;;716.22;114.85;;;5.70;96.90;;;;;;4934558;29;20035;-67
2022/01/12 10:18:51;;;;;;;1999.90;383.80;;;5.80;97.00;;;;;;4933497;29;20047;-68
2022/01/12 10:21:38;;;;;;;1773.97;291.30;;;5.80;97.10;;;;;;4933906;29;20079;-68
2022/01/12 10:24:11;;;;;;;814.47;131.45;;;5.90;97.10;;;;;;4934127;29;20036;-68
2022/01/12 10:26:39;;;;;;;246.63;43.78;;;5.90;97.10;;;;;;4934527;29;20031;-68
2022/01/12 10:29:11;;;;;;;678.60;98.45;;;5.90;97.10;;;;;;4933714;29;20035;-67
2022/01/12 10:31:58;;;;;;;939.63;143.38;;;6.00;97.10;;;;;;4933317;29;20067;-67
2022/01/12 10:34:29;;;;;;;678.22;110.20;;;6.10;97.10;;;;;;4933889;29;20443;-67
2022/01/12 10:36:57;;;;;;;477.88;86.25;;;6.20;97.00;;;;;;4933063;29;20083;-67
2022/01/12 10:39:26;;;;;;;325.25;53.45;;;6.30;97.00;;;;;;4933480;29;20118;-67
2022/01/12 10:42:09;;;;;;;229.23;41.88;;;6.30;96.90;;;;;;4934209;29;20060;-67
2022/01/12 10:44:40;;;;;;;343.88;56.50;;;6.40;96.90;;;;;;4933791;29;20079;-67
2022/01/12 10:47:09;;;;;;;377.38;58.47;;;6.40;96.90;;;;;;4934292;29;20032;-67
2022/01/12 10:49:37;;;;;;;96.50;24.08;;;6.50;96.90;;;;;;4928659;29;20050;-67
2022/01/12 10:52:06;;;;;;;868.33;139.32;;;6.50;96.80;;;;;;4915233;29;20043;-68
2022/01/12 10:54:42;;;;;;;244.70;44.00;;;6.50;96.90;;;;;;4929066;29;20509;-68
2022/01/12 10:57:23;;;;;;;285.63;49.63;;;6.60;96.90;;;;;;4934475;29;20036;-68
2022/01/12 11:00:10;;;;;;;911.70;137.07;;;6.60;96.80;;;;;;4932202;29;20115;-67
2022/01/12 11:02:38;;;;;;;498.17;81.22;;;6.70;96.80;;;;;;4933152;29;20040;-68
2022/01/12 11:05:07;;;;;;;153.55;31.27;;;6.70;96.70;;;;;;4948333;28;20047;-67
2022/01/12 11:07:34;;;;;;;71.90;20.85;;;6.80;96.60;;;;;;4933169;29;20031;-67
2022/01/12 11:10:04;;;;;;;60.10;20.50;;;6.90;96.40;;;;;;4932763;29;20030;-67
2022/01/12 11:12:29;;;;;;;45.40;17.25;;;6.90;96.50;;;;;;4934048;29;20024;-67
2022/01/12 11:14:55;;;;;;;99.72;20.75;;;7.00;96.50;;;;;;4933607;29;20051;-67
2022/01/12 11:17:21;;;;;;;63.13;18.10;;;7.00;96.40;;;;;;4933081;29;20039;-67
2022/01/12 11:20:17;;;;;;;321.58;46.85;;;7.00;96.30;;;;;;4933268;29;20403;-68
2022/01/12 11:23:04;;;;;;;149.18;30.27;;;7.00;96.30;;;;;;4934112;29;20434;-69
2022/01/12 11:25:39;;;;;;;47.08;18.17;;;7.00;96.30;;;;;;4915087;29;20595;-67
2022/01/12 11:28:21;;;;;;;63.10;17.42;;;7.00;96.30;;;;;;4917222;29;20399;-67
2022/01/12 11:30:55;;;;;;;45.38;17.45;;;7.00;96.30;;;;;;4933904;29;20034;-67
2022/01/12 11:33:34;;;;;;;37.92;15.15;;;7.00;96.20;;;;;;4933432;29;20098;-68
2022/01/12 11:36:35;;;;;;;35.50;16.15;;;7.00;96.20;;;;;;4933400;29;20386;-67
2022/01/12 11:39:08;;;;;;;37.05;15.07;;;7.00;96.20;;;;;;4913570;29;20043;-67
2022/01/12 11:41:36;;;;;;;31.13;14.25;;;7.00;96.20;;;;;;4934079;29;20034;-67
2022/01/12 11:44:01;;;;;;;38.72;17.08;;;7.00;96.20;;;;;;4936712;29;20115;-67
2022/01/12 11:46:48;;;;;;;433.55;63.13;;;7.00;96.20;;;;;;4936413;29;20443;-67
2022/01/12 11:49:31;;;;;;;603.17;101.55;;;7.00;96.20;;;;;;4936663;29;20027;-67
2022/01/12 11:51:59;;;;;;;228.70;42.60;;;7.00;96.40;;;;;;4937242;29;20156;-67
2022/01/12 11:54:35;;;;;;;565.80;90.60;;;7.00;96.30;;;;;;4936412;29;20067;-67
2022/01/12 11:57:03;;;;;;;1238.90;205.18;;;7.00;96.30;;;;;;4936865;29;20456;-68
2022/01/12 11:59:31;;;;;;;483.05;79.20;;;7.00;96.30;;;;;;4936486;29;20035;-68
2022/01/12 12:02:12;;;;;;;144.63;33.33;;;7.00;96.30;;;;;;4937179;29;20028;-68
2022/01/12 12:04:38;;;;;;;77.82;21.70;;;7.00;96.30;;;;;;4936208;29;20059;-67
2022/01/12 12:07:14;;;;;;;92.07;21.30;;;7.00;96.30;;;;;;4936802;29;20472;-68
2022/01/12 12:09:43;;;;;;;47.33;18.92;;;6.90;96.40;;;;;;4936115;29;20114;-67
2022/01/12 12:12:11;;;;;;;44.30;16.98;;;6.90;96.50;;;;;;4936894;29;20043;-67
2022/01/12 12:14:36;;;;;;;387.23;60.45;;;7.00;96.60;;;;;;4935275;29;20039;-67
2022/01/12 12:17:03;;;;;;;79.38;22.92;;;6.90;96.60;;;;;;4936565;29;20028;-67
2022/01/12 12:19:29;;;;;;;52.08;19.58;;;6.90;96.60;;;;;;4935631;29;20090;-67
2022/01/12 12:21:55;;;;;;;61.67;19.60;;;6.90;96.90;;;;;;4935982;29;20059;-67
2022/01/12 12:24:20;;;;;;;58.75;18.55;;;6.90;96.70;;;;;;4936075;29;20075;-67
2022/01/12 12:26:51;;;;;;;598.08;97.45;;;7.00;96.70;;;;;;4936678;29;20046;-68
2022/01/12 12:29:25;;;;;;;337.25;55.85;;;6.90;96.70;;;;;;4935935;29;20088;-68
2022/01/12 12:31:51;;;;;;;191.82;37.85;;;6.90;96.70;;;;;;4935212;29;20122;-68
2022/01/12 12:34:17;;;;;;;75.07;22.00;;;6.90;96.80;;;;;;4935624;29;20174;-67
2022/01/12 12:36:42;;;;;;;57.15;19.45;;;6.90;96.80;;;;;;4936314;29;20039;-67
2022/01/12 12:39:13;;;;;;;260.90;45.17;;;6.90;96.80;;;;;;4935746;29;20035;-67
2022/01/12 12:41:44;;;;;;;347.52;53.28;;;6.90;96.90;;;;;;4932032;29;20043;-67
2022/01/12 12:44:27;;;;;;;228.63;41.10;;;6.90;97.00;;;;;;4935729;29;20506;-68
2022/01/12 12:47:06;;;;;;;263.55;41.45;;;6.90;97.10;;;;;;4920483;29;20039;-68
2022/01/12 12:49:36;;;;;;;101.15;27.67;;;6.90;97.20;;;;;;4925386;29;20364;-67
2022/01/12 12:52:02;;;;;;;682.22;108.10;;;6.90;97.10;;;;;;4932856;29;20032;-66
2022/01/12 12:54:27;;;;;;;300.90;52.78;;;6.90;97.10;;;;;;4934584;29;20039;-66
2022/01/12 12:56:59;;;;;;;97.38;25.20;;;7.00;97.20;;;;;;4935160;29;20387;-66
2022/01/12 12:59:24;;;;;;;83.85;22.02;;;7.00;97.10;;;;;;4934834;29;20043;-66
2022/01/12 13:01:50;;;;;;;61.92;18.60;;;7.00;97.10;;;;;;4935232;29;20414;-66
2022/01/12 13:04:21;;;;;;;56.70;19.20;;;7.00;97.20;;;;;;4933485;29;20028;-66
2022/01/12 13:06:47;;;;;;;47.58;18.73;;;6.90;97.20;;;;;;4934637;29;20479;-66
2022/01/12 13:09:13;;;;;;;920.47;152.93;;;6.90;97.20;;;;;;4932536;29;20031;-66
2022/01/12 13:11:44;;;;;;;511.88;74.78;;;6.90;97.30;;;;;;4934720;29;20035;-67
2022/01/12 13:14:12;;;;;;;190.13;34.35;;;6.90;97.50;;;;;;4933922;29;20032;-65
2022/01/12 13:16:49;;;;;;;157.10;29.50;;;6.90;97.40;;;;;;4934823;29;20028;-67
2022/01/12 13:19:22;;;;;;;518.22;82.50;;;6.90;97.50;;;;;;4927929;29;20630;-68
2022/01/12 13:21:48;;;;;;;180.60;39.97;;;6.90;97.50;;;;;;4935456;29;20516;-67
2022/01/12 13:24:15;;;;;;;398.23;71.82;;;7.00;97.60;;;;;;4934581;29;20406;-66
2022/01/12 13:26:40;;;;;;;208.57;38.15;;;6.90;97.60;;;;;;4935023;29;20055;-66
2022/01/12 13:29:11;;;;;;;101.00;25.10;;;6.90;97.60;;;;;;4934193;29;20618;-66
2022/01/12 13:31:36;;;;;;;110.80;25.38;;;6.90;97.90;;;;;;4934986;29;20036;-65
2022/01/12 13:34:04;;;;;;;67.15;22.73;;;6.90;97.70;;;;;;4933975;29;20107;-66
2022/01/12 13:36:32;;;;;;;78.38;23.65;;;7.00;97.70;;;;;;4931532;29;20034;-66
2022/01/12 13:39:10;;;;;;;77.65;23.38;;;6.90;97.80;;;;;;4933137;29;20032;-67
2022/01/12 13:41:42;;;;;;;55.78;20.60;;;6.90;97.80;;;;;;4930894;29;20035;-67
2022/01/12 13:44:15;;;;;;;48.05;19.75;;;6.90;97.80;;;;;;4926400;29;20032;-67
2022/01/12 13:46:44;;;;;;;55.17;20.50;;;6.90;97.80;;;;;;4934388;29;20488;-66
2022/01/12 13:51:53;;;;;;;47.30;20.02;;;6.90;97.90;;;;;;4933086;29;20155;-66